Petr Holes

Olheiro-Chefe - Teplice
16 Dez 2027
Quinta-feira
Processo

Personalidade

Adaptabilidade (14) Ambição (10) Controvérsia (1) Lealdade (7) Pressão (9) Profissionalismo (12) Espírito Esportivo (18) Temperamento (11)

Perfil

Estilo de Treinamento Democrático
Licença Continental Pro
Determinação 10
Gestão de Pessoas 6
Motivação 9
Disciplina 8
Satisfação no Trabalho
100%
Fadiga
0%
Função Olheiro-Chefe
Salário 61.2K p/s
Contrato 14.03.2028

Desempenho

Comportamento Bom
Eficácia do Treinamento
31%
Desenvolvimento do Jogador
15%
Prevenção de Lesões
50%
Implementação Tática
35%

Eventos Recentes

Participou de uma reunião de recrutamento agora
Recomendou um alvo de transferência agora
Participou de uma reunião de recrutamento agora
Participou de uma reunião de recrutamento 7d atrás
Recomendou um alvo de transferência 7d atrás
Participou de uma reunião de recrutamento 7d atrás
Recomendou um alvo de transferência 7d atrás
Recomendou um alvo de transferência 7d atrás

Monitorando agora

117
Jogador Clube Status Habilidade Confiança Observado Última observação Último voto
Peter Kareem Bohemians 1905 Ativo 82 / 104 65% 1 14.06.2027 Aprovar
Bradley Phiri Lillestrom Negociando 112 / 112 66% 1 01.06.2027 -
Razvan Mitrita San Diego Football Club Negociando 118 / 120 66% 1 01.06.2027 -
Shota Shekiladze Akhmat Grozny Negociando 110 / 110 66% 1 01.06.2027 -
Goga Kobiashvili Veres Negociando 92 / 92 66% 1 01.06.2027 -
Pedro de la Vega FC Dallas Ativo 133 / 134 66% 1 01.06.2027 Aprovar
Luke McNally Bristol City Ativo 129 / 136 40% 6 29.05.2027 -
Darlin Yongwa Norwich City Ativo 126 / 126 40% 1 29.05.2027 -
Will Fish Cardiff City Ativo 128 / 126 40% 3 27.05.2027 -
Kane Wilson Milton Keynes Dons Ativo 111 / 118 40% 1 27.05.2027 -
Marvin Kaleta Rotherham United Ativo 109 / 112 40% 1 27.05.2027 -
Bali Mumba Huddersfield Town Ativo 123 / 124 40% 3 25.05.2027 -
Matthew Sorinola Newport County Ativo 116 / 103 40% 3 25.05.2027 -
Mattia Viti Sampdoria Ativo 127 / 134 40% 1 25.05.2027 -
Juan Mosquera Sheffield Wednesday Ativo 119 / 124 40% 5 24.05.2027 -
Victor Torp Coventry City Ativo 123 / 135 40% 2 24.05.2027 -
Marcus Ifill Gillingham Ativo 104 / 111 40% 1 24.05.2027 -
Archie Collins Peterborough United Ativo 109 / 118 40% 2 23.05.2027 -
Jacques Ekomié Wrexham Ativo 126 / 131 40% 3 21.05.2027 -
Georgie Gent Barnsley Ativo 109 / 117 40% 4 21.05.2027 -
Josh Edwards Charlton Athletic Ativo 129 / 118 40% 2 20.05.2027 -
Mirko Topić Norwich City Ativo 119 / 127 40% 2 20.05.2027 -
Christos Mouzakitis Hull City Ativo 135 / 143 40% 2 20.05.2027 -
Karel Spáčil Viktoria Plzen Ativo 136 / 134 40% 2 19.05.2027 -
Ilario Monterisi Frosinone Ativo 123 / 134 40% 3 19.05.2027 -
Mattie Pollock Watford Ativo 129 / 129 40% 1 19.05.2027 -
Charlie Webster Burton Albion Ativo 111 / 117 40% 2 18.05.2027 -
Jack Currie Oxford United Ativo 124 / 119 40% 6 18.05.2027 -
Caolan Boyd-Munce Wycombe Wanderers Ativo 126 / 121 40% 1 18.05.2027 -
Alessandro Bianco Modena Ativo 128 / 134 40% 1 17.05.2027 -
Kellen Fisher Norwich City Ativo 126 / 124 40% 3 13.05.2027 -
Liam Thompson Mansfield Town Ativo 117 / 119 40% 1 12.05.2027 -
Kamil Conteh Bristol Rovers Ativo 106 / 104 40% 1 12.05.2027 -
Matías Gómez Granada Ativo 113 / 117 40% 1 12.05.2027 -
Kristoffer Lund Birmingham Ativo 122 / 124 40% 2 11.05.2027 -
Nicolas Madsen Queens Park Rangers Ativo 127 / 133 40% 2 10.05.2027 -
Sondre Langås Derby County Ativo 132 / 126 40% 2 10.05.2027 -
Femi Seriki Sheffield United Ativo 132 / 126 40% 2 10.05.2027 -
James Morris Leyton Orient Ativo 111 / 120 40% 3 07.05.2027 -
Josh Benson Rotherham United Ativo 108 / 109 40% 1 07.05.2027 -
Yussif Saidu Zaragoza Ativo 121 / 128 40% 2 05.05.2027 -
Samuele Birindelli Monza Ativo 134 / 118 40% 1 05.05.2027 -
Williams Manyama SuperSport United Ativo 124 / 108 40% 4 02.05.2027 -
Dennis Cirkin Queens Park Rangers Ativo 133 / 128 40% 3 02.05.2027 -
Idris El Mizouni Leyton Orient Ativo 124 / 115 40% 3 01.05.2027 -
Guillem Molina Huesca Ativo 111 / 113 40% 4 01.05.2027 -
Derry Murkin Derby County Ativo 125 / 128 40% 2 29.04.2027 -
Aaron Morley Wycombe Wanderers Ativo 110 / 110 40% 2 29.04.2027 -
Jay McGrath Doncaster Rovers Ativo 111 / 103 40% 1 28.04.2027 -
Merchas Doski Viktoria Plzen Ativo 124 / 117 40% 5 26.04.2027 -
Bosun Lawal Stoke City Ativo 119 / 123 40% 1 26.04.2027 -
Lewis Bate Stockport County Ativo 114 / 113 40% 1 22.04.2027 -
Brian De Keersmaecker Oxford United Ativo 126 / 114 40% 2 21.04.2027 -
Harrison Burrows Sheffield United Ativo 120 / 122 40% 2 21.04.2027 -
Andrei Coubiş Lincoln City Ativo 117 / 113 40% 2 19.04.2027 -
Hayden Carter Blackburn Rovers Ativo 131 / 125 40% 2 18.04.2027 -
Teden Mengi Luton Town Ativo 123 / 122 40% 1 18.04.2027 -
Milan van Ewijk Mansfield Town Ativo 128 / 131 40% 3 15.04.2027 -
Kyle John Port Vale Ativo 109 / 113 40% 3 15.04.2027 -
Josh Tymon Swansea City Ativo 119 / 129 40% 1 14.04.2027 -
Nathan Moriah-Welsh Mansfield Town Ativo 103 / 115 40% 1 14.04.2027 -
Ronnie Edwards Queens Park Rangers Ativo 131 / 127 40% 1 14.04.2027 -
Tomás Ribeiro Cultural Leonesa Ativo 113 / 114 40% 2 13.04.2027 -
Mandla Erasmus SuperSport United Ativo 111 / 119 40% 2 11.04.2027 -
Álex Centelles Levski Ativo 123 / 131 40% 1 11.04.2027 -
Di'Shon Bernard Sheffield Wednesday Ativo 119 / 125 40% 2 08.04.2027 -
Daniel Tonoli Modena Ativo 120 / 115 40% 2 04.04.2027 -
Filippo Ranocchia Palermo Ativo 133 / 121 40% 1 04.04.2027 -
James Furlong Walsall Ativo 107 / 102 40% 1 03.04.2027 -
Kayne Ramsay Charlton Athletic Ativo 133 / 122 40% 1 02.04.2027 -
Jack MacKenzie Plymouth Argyle Ativo 109 / 102 40% 1 29.03.2027 -
Bradley Tau SuperSport United Ativo 115 / 122 40% 1 29.03.2027 -
Bobby Thomas Coventry City Ativo 126 / 138 40% 3 25.03.2027 -
Ryan Alebiosu Blackburn Rovers Ativo 130 / 119 40% 1 25.03.2027 -
Nobel Mendy Hull City Ativo 125 / 135 40% 1 24.03.2027 -
Callum Doyle Wrexham Ativo 130 / 139 40% 1 21.03.2027 -
Marko Soldo Sigma Olomouc Ativo 108 / 116 40% 1 19.03.2027 -
Adam Randell Bristol City Ativo 129 / 126 40% 1 19.03.2027 -
Zak Swanson Bradford City Ativo 122 / 115 40% 2 18.03.2027 -
Ítalo Ural Ativo 109 / 110 40% 1 18.03.2027 -
Joel Bagan Cardiff City Ativo 107 / 114 40% 1 18.03.2027 -
Japhet Tanganga Sheffield United Ativo 140 / 140 40% 1 09.03.2027 -
Ilir Krasniqi Polissia Ativo 117 / 111 40% 1 05.03.2027 -
Michal Fukala Zlin Ativo 116 / 117 40% 1 04.03.2027 -
Lewis Freestone Stevenage Ativo 98 / 110 40% 1 03.03.2027 -
Leif Davis Ipswich Town Ativo 142 / 130 40% 1 01.01.2027 -
Jiří Boula Banik Ostrava Ativo 132 / 117 40% 1 01.01.2027 -
Ebrima Singhateh Jablonec Ativo 119 / 125 40% 3 29.12.2026 -
Scott Twine Bristol City Ativo 130 / 122 40% 1 28.12.2026 -
Finn Azaz Southampton Ativo 128 / 118 40% 1 28.12.2026 -
Dominik Pleštil Bohemians 1905 Ativo 107 / 111 40% 2 27.12.2026 -
Jack McGlynn Stoke City Ativo 121 / 134 40% 1 27.12.2026 -
David Pech Mlada Boleslav Ativo 120 / 116 40% 1 26.12.2026 -
Derensili Sanches Fernandes Huddersfield Town Ativo 117 / 119 40% 1 24.12.2026 -
Ronald Swansea City Ativo 122 / 117 40% 1 22.12.2026 -
Everton Bala Levski Ativo 129 / 127 40% 1 16.12.2026 -
Patrik Wålemark Lech Ativo 136 / 134 40% 1 15.12.2026 -
Sebastian Nebyla Jablonec Ativo 123 / 110 40% 1 13.12.2026 -
Suleiman Camara Slovan Bratislava Ativo 118 / 114 40% 2 12.12.2026 -
Ammar Ramadan DAC Dunajska Streda Ativo 116 / 117 40% 1 08.12.2026 -
Thalente Mbatha Orlando Pirates Ativo 111 / 105 40% 1 07.12.2026 -
Marcelo Allende Mamelodi Sundowns Ativo 121 / 134 40% 1 06.12.2026 -
Tornike Morchiladze HNK Rijeka Ativo 125 / 123 40% 2 04.12.2026 -
Tshepang Moremi Orlando Pirates Ativo 125 / 111 40% 1 25.11.2026 Mais informações
Angelo Gattermayer Wolfsberger AC Ativo 128 / 118 40% 1 24.11.2026 -
Reda Khadra Qarabag Ativo 141 / 136 40% 1 23.11.2026 -
Maicon Levski Ativo 126 / 117 40% 1 19.11.2026 -
Martín Garay Tigre Ativo 136 / 126 40% 1 19.11.2026 -
Valentín Barco Chelsea Ativo 138 / 145 40% 1 18.11.2026 -
Elias Achouri San Diego Football Club Ativo 139 / 136 40% 1 18.11.2026 -
Sebastián Medina Tigre Ativo 129 / 130 40% 1 18.11.2026 -
Tomás O'Connor Gimnasia y Esgrima Ativo 134 / 136 40% 1 10.11.2026 -
Oswin Appollis Orlando Pirates Ativo 109 / 108 40% 1 10.11.2026 -
Denis Višinský Viktoria Plzen Ativo 121 / 122 40% 1 08.11.2026 -
Abubakar Ghali Sigma Olomouc Ativo 114 / 120 40% 1 06.11.2026 -
Lukáš Vorlický Slovacko Ativo 103 / 115 40% 1 05.11.2026 -
Qëndrim Zyba Slovan Liberec Ativo 114 / 116 62% 1 24.08.2026 Aprovar